createdAt,value
2023-03-22T00:01:20.461Z,10.30
2023-03-22T00:04:42.299Z,10.30
2023-03-22T00:08:04.020Z,10.20
2023-03-22T00:11:25.632Z,10.20
2023-03-22T00:14:48.609Z,10.20
2023-03-22T00:18:10.638Z,10.10
2023-03-22T00:21:32.214Z,10.10
2023-03-22T00:24:53.828Z,10.00
2023-03-22T00:28:15.833Z,9.90
2023-03-22T00:31:42.673Z,9.70
2023-03-22T00:35:05.193Z,9.70
2023-03-22T00:38:41.226Z,9.60
2023-03-22T00:42:03.595Z,9.50
2023-03-22T00:45:25.161Z,9.50
2023-03-22T00:48:48.406Z,9.60
2023-03-22T00:52:10.004Z,9.70
2023-03-22T00:55:31.912Z,9.80
2023-03-22T00:58:53.495Z,9.90
2023-03-22T01:02:15.169Z,10.00
2023-03-22T01:05:38.132Z,10.00
2023-03-22T01:08:59.736Z,10.00
2023-03-22T01:12:21.341Z,10.00
2023-03-22T01:15:42.952Z,10.00
2023-03-22T01:19:04.518Z,9.90
2023-03-22T01:22:27.495Z,9.80
2023-03-22T01:25:49.105Z,9.60
2023-03-22T01:29:10.702Z,9.60
2023-03-22T01:32:32.328Z,9.50
2023-03-22T01:35:53.931Z,9.40
2023-03-22T01:39:16.909Z,9.20
2023-03-22T01:42:38.518Z,9.10
2023-03-22T01:46:00.313Z,9.00
2023-03-22T01:49:23.493Z,9.00
2023-03-22T01:52:45.414Z,8.90
2023-03-22T01:56:09.435Z,8.80
2023-03-22T01:59:31.187Z,8.70
2023-03-22T02:02:52.959Z,8.60
2023-03-22T02:06:14.601Z,8.50
2023-03-22T02:09:36.207Z,8.40
2023-03-22T02:13:08.245Z,8.30
2023-03-22T02:16:34.052Z,8.30
2023-03-22T02:20:19.137Z,8.20
2023-03-22T02:24:04.564Z,8.10
2023-03-22T02:27:34.167Z,8.10
2023-03-22T02:31:04.913Z,8.10
2023-03-22T02:34:36.109Z,8.10
2023-03-22T02:38:06.921Z,8.10
2023-03-22T02:41:36.673Z,8.10
2023-03-22T02:45:01.589Z,8.10
2023-03-22T02:48:27.044Z,8.10
2023-03-22T02:51:50.773Z,8.10
2023-03-22T02:55:14.662Z,8.00
2023-03-22T02:58:39.032Z,7.90
2023-03-22T03:02:02.530Z,7.80
2023-03-22T03:05:25.047Z,7.70
2023-03-22T03:08:48.096Z,7.60
2023-03-22T03:12:13.799Z,7.50
2023-03-22T03:15:38.616Z,7.40
2023-03-22T03:19:03.395Z,7.30
2023-03-22T03:22:30.696Z,7.30
2023-03-22T03:25:57.232Z,7.30
2023-03-22T03:29:22.581Z,7.30
2023-03-22T03:32:48.408Z,7.40
2023-03-22T03:36:11.485Z,7.40
2023-03-22T03:39:34.704Z,7.40
2023-03-22T03:42:57.922Z,7.40
2023-03-22T03:46:19.950Z,7.30
2023-03-22T03:49:42.905Z,7.20
2023-03-22T03:53:04.754Z,7.20
2023-03-22T03:56:26.373Z,7.10
2023-03-22T03:59:48.024Z,7.10
2023-03-22T04:03:09.628Z,7.10
2023-03-22T04:06:32.681Z,7.10
2023-03-22T04:09:54.302Z,7.20
2023-03-22T04:13:15.883Z,7.40
2023-03-22T04:16:37.508Z,7.50
2023-03-22T04:19:59.141Z,7.70
2023-03-22T04:23:22.131Z,7.80
2023-03-22T04:26:43.760Z,7.80
2023-03-22T04:30:06.457Z,7.90
2023-03-22T04:33:28.049Z,7.90
2023-03-22T04:36:49.641Z,8.00
2023-03-22T04:40:13.216Z,8.00
2023-03-22T04:43:34.820Z,7.90
2023-03-22T04:46:56.435Z,7.90
2023-03-22T04:50:18.180Z,7.90
2023-03-22T04:53:39.789Z,7.90
2023-03-22T04:57:02.923Z,7.80
2023-03-22T05:00:24.519Z,7.70
2023-03-22T05:03:46.096Z,7.70
2023-03-22T05:07:07.681Z,7.60
2023-03-22T05:10:29.293Z,7.50
2023-03-22T05:13:52.216Z,7.50
2023-03-22T05:17:13.788Z,7.40
2023-03-22T05:20:35.446Z,7.40
2023-03-22T05:23:58.989Z,7.50
2023-03-22T05:27:20.804Z,7.50
2023-03-22T05:30:43.789Z,7.40
2023-03-22T05:34:05.532Z,7.30
2023-03-22T05:37:27.172Z,7.30
2023-03-22T05:40:49.010Z,7.20
2023-03-22T05:44:10.587Z,7.20
2023-03-22T05:47:33.514Z,7.20
2023-03-22T05:50:55.103Z,7.20
2023-03-22T05:54:16.662Z,7.30
2023-03-22T05:57:38.609Z,7.40
2023-03-22T06:01:04.912Z,7.40
2023-03-22T06:04:27.861Z,7.40
2023-03-22T06:07:49.612Z,7.50
2023-03-22T06:11:11.248Z,7.50
2023-03-22T06:14:32.874Z,7.60
2023-03-22T06:17:54.457Z,7.60
2023-03-22T06:21:17.405Z,7.70
2023-03-22T06:24:38.981Z,7.80
2023-03-22T06:28:00.608Z,7.90
2023-03-22T06:31:22.232Z,7.90
2023-03-22T06:34:43.940Z,8.00
2023-03-22T06:38:06.865Z,8.10
2023-03-22T06:41:28.466Z,8.20
2023-03-22T06:44:50.060Z,8.30
2023-03-22T06:48:11.729Z,8.50
2023-03-22T06:51:33.430Z,8.70
2023-03-22T06:54:56.382Z,8.90
2023-03-22T06:58:18.054Z,9.10
2023-03-22T07:01:39.708Z,9.20
2023-03-22T07:05:01.302Z,9.20
2023-03-22T07:08:23.269Z,9.30
2023-03-22T07:11:46.207Z,9.40
2023-03-22T07:15:08.305Z,9.60
2023-03-22T07:18:30.415Z,9.70
2023-03-22T07:21:52.006Z,9.90
2023-03-22T07:25:13.780Z,10.20
2023-03-22T07:28:36.914Z,10.50
2023-03-22T07:31:58.525Z,11.00
2023-03-22T07:35:20.133Z,12.30
2023-03-22T07:38:41.796Z,13.90
2023-03-22T07:42:03.804Z,14.70
2023-03-22T07:45:26.899Z,15.80
2023-03-22T07:48:48.555Z,17.20
2023-03-22T07:52:10.167Z,18.40
2023-03-22T07:55:31.744Z,19.70
2023-03-22T07:58:53.556Z,20.70
2023-03-22T08:02:16.614Z,21.10
2023-03-22T08:05:39.685Z,21.60
2023-03-22T08:09:01.382Z,21.70
2023-03-22T08:12:23.091Z,22.30
2023-03-22T08:15:44.688Z,22.40
2023-03-22T08:19:07.614Z,22.90
2023-03-22T08:22:29.222Z,23.30
2023-03-22T08:25:51.133Z,23.30
2023-03-22T08:29:12.713Z,22.40
2023-03-22T08:32:34.406Z,22.60
2023-03-22T08:36:05.703Z,22.20
2023-03-22T08:39:27.464Z,22.30
2023-03-22T08:42:49.160Z,22.30
2023-03-22T08:46:10.919Z,21.90
2023-03-22T08:49:32.606Z,22.00
2023-03-22T08:52:55.560Z,22.60
2023-03-22T08:56:17.237Z,22.60
2023-03-22T08:59:38.821Z,22.50
2023-03-22T09:03:00.415Z,22.60
2023-03-22T09:06:22.076Z,22.40
2023-03-22T09:09:45.029Z,21.90
2023-03-22T09:13:06.602Z,22.10
2023-03-22T09:16:28.196Z,21.70
2023-03-22T09:19:51.372Z,21.60
2023-03-22T09:23:14.090Z,21.60
2023-03-22T09:26:37.052Z,21.70
2023-03-22T09:29:59.542Z,21.70
2023-03-22T09:33:21.101Z,21.90
2023-03-22T09:36:42.666Z,21.90
2023-03-22T09:40:04.819Z,21.50
2023-03-22T09:43:28.892Z,21.00
2023-03-22T09:46:52.062Z,21.30
2023-03-22T09:50:15.371Z,21.30
2023-03-22T09:53:36.941Z,21.40
2023-03-22T09:56:59.767Z,21.10
2023-03-22T10:00:26.880Z,20.70
2023-03-22T10:04:01.721Z,20.50
2023-03-22T10:07:27.255Z,21.30
2023-03-22T10:10:49.108Z,21.10
2023-03-22T10:14:19.882Z,20.90
2023-03-22T10:17:45.567Z,21.30
2023-03-22T10:21:08.427Z,20.60
2023-03-22T10:24:31.539Z,20.50
2023-03-22T10:27:53.204Z,20.30
2023-03-22T10:31:16.294Z,20.10
2023-03-22T10:34:39.355Z,19.30
2023-03-22T10:38:02.003Z,19.30
2023-03-22T10:41:25.143Z,18.90
2023-03-22T10:44:48.116Z,18.70
2023-03-22T10:48:11.846Z,18.70
2023-03-22T10:51:37.133Z,18.70
2023-03-22T10:55:03.084Z,18.90
2023-03-22T10:58:29.143Z,18.80
2023-03-22T11:01:51.075Z,18.80
2023-03-22T11:05:19.466Z,18.80
2023-03-22T11:08:43.822Z,18.70
2023-03-22T11:12:10.879Z,18.70
2023-03-22T11:15:33.953Z,18.70
2023-03-22T11:18:57.025Z,18.70
2023-03-22T11:22:22.701Z,18.80
2023-03-22T11:25:47.588Z,18.70
2023-03-22T11:29:13.474Z,18.60
2023-03-22T11:32:36.370Z,18.60
2023-03-22T11:35:59.084Z,18.50
2023-03-22T11:39:21.038Z,18.40
2023-03-22T11:42:44.064Z,18.40
2023-03-22T11:46:07.377Z,18.30
2023-03-22T11:49:34.069Z,18.40
2023-03-22T11:52:55.674Z,18.60
2023-03-22T11:56:18.477Z,18.80
2023-03-22T11:59:45.756Z,18.90
2023-03-22T12:03:10.962Z,19.10
2023-03-22T12:06:34.052Z,19.20
2023-03-22T12:09:59.129Z,19.20
2023-03-22T12:13:23.368Z,19.20
2023-03-22T12:16:48.956Z,19.20
2023-03-22T12:20:15.994Z,19.20
2023-03-22T12:23:38.125Z,19.40
2023-03-22T12:27:01.780Z,19.30
2023-03-22T12:30:24.108Z,19.40
2023-03-22T12:33:48.809Z,19.40
2023-03-22T12:37:14.276Z,19.20
2023-03-22T12:40:38.417Z,18.90
2023-03-22T12:44:01.447Z,18.90
2023-03-22T12:47:25.100Z,19.20
2023-03-22T12:50:49.468Z,19.20
2023-03-22T12:54:11.678Z,19.50
2023-03-22T12:57:33.354Z,19.20
2023-03-22T13:00:56.861Z,19.10
2023-03-22T13:04:29.072Z,19.10
2023-03-22T13:07:53.552Z,18.90
2023-03-22T13:11:22.097Z,19.00
2023-03-22T13:15:00.106Z,19.10
2023-03-22T13:18:37.024Z,19.20
2023-03-22T13:22:15.105Z,19.40
2023-03-22T13:25:39.058Z,19.60
2023-03-22T13:29:07.517Z,19.60
2023-03-22T13:32:30.033Z,19.60
2023-03-22T13:35:52.729Z,19.60
2023-03-22T13:39:15.564Z,19.50
2023-03-22T13:42:39.677Z,19.30
2023-03-22T13:46:03.580Z,19.10
2023-03-22T13:49:46.288Z,19.20
2023-03-22T13:53:13.533Z,19.20
2023-03-22T13:56:47.099Z,19.10
2023-03-22T14:00:20.754Z,19.20
2023-03-22T14:03:43.814Z,19.40
2023-03-22T14:07:07.774Z,19.60
2023-03-22T14:10:32.629Z,19.80
2023-03-22T14:13:57.014Z,19.80
2023-03-22T14:17:26.848Z,19.70
2023-03-22T14:20:51.143Z,19.60
